createdAt,value
2019-03-27T00:00:44.937Z,6.00
2019-03-27T00:01:44.921Z,8.20
2019-03-27T00:02:44.923Z,6.90
2019-03-27T00:03:44.902Z,7.10
2019-03-27T00:04:44.939Z,7.30
2019-03-27T00:05:44.883Z,7.10
2019-03-27T00:06:44.876Z,7.70
2019-03-27T00:07:44.863Z,7.40
2019-03-27T00:08:44.855Z,7.20
2019-03-27T00:09:44.836Z,7.40
2019-03-27T00:10:44.875Z,7.20
2019-03-27T00:11:44.832Z,7.10
2019-03-27T00:12:44.820Z,7.30
2019-03-27T00:13:44.818Z,7.20
2019-03-27T00:14:44.781Z,7.10
2019-03-27T00:15:44.774Z,7.80
2019-03-27T00:16:44.793Z,7.10
2019-03-27T00:17:44.759Z,7.10
2019-03-27T00:18:44.753Z,7.30
2019-03-27T00:19:44.727Z,7.20
2019-03-27T00:20:44.723Z,7.70
2019-03-27T00:21:44.707Z,7.00
2019-03-27T00:22:44.727Z,6.80
2019-03-27T00:23:44.689Z,7.00
2019-03-27T00:24:44.679Z,6.90
2019-03-27T00:25:44.698Z,7.00
2019-03-27T00:26:44.657Z,7.30
2019-03-27T00:27:44.644Z,7.40
2019-03-27T00:28:44.693Z,7.50
2019-03-27T00:29:44.646Z,7.80
2019-03-27T00:30:44.610Z,7.50
2019-03-27T00:31:44.604Z,7.50
2019-03-27T00:32:44.634Z,6.40
2019-03-27T00:33:44.577Z,6.80
2019-03-27T00:34:44.572Z,7.00
2019-03-27T00:35:44.564Z,7.30
2019-03-27T00:36:44.573Z,6.80
2019-03-27T00:37:44.542Z,7.60
2019-03-27T00:38:44.553Z,6.10
2019-03-27T00:39:44.519Z,6.90
2019-03-27T00:40:44.503Z,6.80
2019-03-27T00:41:44.508Z,7.20
2019-03-27T00:42:44.513Z,7.10
2019-03-27T00:43:44.476Z,7.00
2019-03-27T00:44:44.500Z,7.00
2019-03-27T00:45:44.457Z,7.30
2019-03-27T00:46:44.446Z,7.20
2019-03-27T00:47:44.434Z,6.40
2019-03-27T00:48:44.457Z,7.40
2019-03-27T00:49:44.414Z,7.20
2019-03-27T00:50:44.425Z,8.20
2019-03-27T00:51:44.397Z,7.00
2019-03-27T00:52:44.384Z,7.20
2019-03-27T00:53:44.369Z,6.40
2019-03-27T00:54:44.371Z,7.00
2019-03-27T00:55:44.348Z,8.10
2019-03-27T00:56:44.363Z,7.50
2019-03-27T00:57:44.331Z,7.70
2019-03-27T00:58:44.314Z,7.60
2019-03-27T00:59:44.312Z,7.20
2019-03-27T01:00:44.299Z,7.40
2019-03-27T01:01:44.303Z,8.20
2019-03-27T01:02:44.300Z,7.80
2019-03-27T01:03:44.267Z,8.30
2019-03-27T01:04:44.257Z,8.60
2019-03-27T01:05:44.250Z,8.20
2019-03-27T01:06:44.267Z,8.10
2019-03-27T01:07:44.224Z,8.10
2019-03-27T01:08:44.223Z,7.90
2019-03-27T01:09:44.205Z,7.90
2019-03-27T01:10:44.191Z,8.50
2019-03-27T01:11:44.185Z,8.10
2019-03-27T01:12:44.179Z,8.40
2019-03-27T01:13:44.188Z,8.30
2019-03-27T01:14:44.147Z,8.40
2019-03-27T01:15:44.136Z,8.40
2019-03-27T01:16:44.131Z,8.90
2019-03-27T01:17:44.115Z,9.20
2019-03-27T01:18:44.103Z,8.60
2019-03-27T01:19:44.180Z,8.70
2019-03-27T01:20:44.081Z,8.70
2019-03-27T01:21:44.091Z,8.50
2019-03-27T01:22:44.069Z,9.50
2019-03-27T01:23:44.075Z,8.50
2019-03-27T01:24:44.041Z,9.70
2019-03-27T01:25:44.067Z,8.50
2019-03-27T01:26:44.017Z,9.20
2019-03-27T01:27:44.008Z,9.10
2019-03-27T01:28:44.013Z,10.00
2019-03-27T01:29:43.992Z,9.10
2019-03-27T01:30:43.988Z,9.50
2019-03-27T01:31:44.010Z,9.50
2019-03-27T01:32:43.957Z,9.50
2019-03-27T01:33:43.941Z,9.30
2019-03-27T01:34:43.932Z,8.60
2019-03-27T01:35:43.922Z,9.20
2019-03-27T01:36:43.911Z,9.70
2019-03-27T01:37:43.937Z,8.60
2019-03-27T01:38:43.888Z,9.40
2019-03-27T01:39:43.887Z,9.00
2019-03-27T01:40:43.869Z,9.70
2019-03-27T01:41:43.859Z,9.80
2019-03-27T01:42:43.849Z,9.90
2019-03-27T01:43:43.877Z,8.80
2019-03-27T01:44:43.833Z,9.30
2019-03-27T01:45:52.869Z,8.70
2019-03-27T01:46:44.806Z,9.70
2019-03-27T01:47:43.794Z,9.60
2019-03-27T01:48:43.791Z,10.10
2019-03-27T01:49:43.805Z,9.00
2019-03-27T01:50:43.767Z,9.40
2019-03-27T01:51:43.767Z,9.50
2019-03-27T01:52:43.749Z,9.40
2019-03-27T01:53:43.734Z,8.90
2019-03-27T01:54:43.735Z,9.20
2019-03-27T01:55:43.750Z,9.50
2019-03-27T01:56:43.706Z,9.30
2019-03-27T01:57:43.714Z,9.30
2019-03-27T01:58:43.691Z,9.60
2019-03-27T01:59:43.686Z,9.20
2019-03-27T02:00:43.675Z,10.00
2019-03-27T02:01:43.682Z,10.90
2019-03-27T02:02:43.641Z,9.90
2019-03-27T02:03:43.623Z,9.90
2019-03-27T02:04:43.613Z,10.50
2019-03-27T02:05:43.613Z,9.40
2019-03-27T02:06:43.611Z,10.10
2019-03-27T02:07:43.623Z,9.80
2019-03-27T02:08:43.596Z,9.60
2019-03-27T02:09:43.566Z,9.90
2019-03-27T02:10:43.555Z,10.50
2019-03-27T02:11:43.547Z,10.50
2019-03-27T02:12:43.535Z,10.00
2019-03-27T02:13:43.548Z,9.90
2019-03-27T02:14:43.513Z,9.60
2019-03-27T02:15:43.499Z,10.10
2019-03-27T02:16:43.489Z,9.40
2019-03-27T02:17:43.490Z,10.50
2019-03-27T02:18:43.502Z,10.10
2019-03-27T02:19:43.486Z,10.00
2019-03-27T02:20:43.449Z,9.10
2019-03-27T02:21:43.448Z,10.00
2019-03-27T02:22:43.432Z,10.20
2019-03-27T02:23:43.431Z,10.20
2019-03-27T02:24:43.470Z,10.10
2019-03-27T02:25:43.432Z,10.30
2019-03-27T02:26:43.379Z,9.90
2019-03-27T02:27:43.372Z,11.40
2019-03-27T02:28:43.355Z,10.70
2019-03-27T02:29:43.359Z,10.10
2019-03-27T02:30:43.338Z,9.70
2019-03-27T02:31:43.357Z,9.70
2019-03-27T02:32:43.326Z,9.90
2019-03-27T02:33:43.305Z,10.10
2019-03-27T02:34:43.300Z,11.00
2019-03-27T02:35:43.288Z,9.90
2019-03-27T02:36:43.282Z,9.90
2019-03-27T02:37:43.298Z,10.20
2019-03-27T02:38:43.253Z,9.90
2019-03-27T02:39:43.268Z,10.30
2019-03-27T02:40:43.243Z,11.30
2019-03-27T02:41:43.231Z,10.50
2019-03-27T02:42:43.230Z,11.20
2019-03-27T02:43:43.235Z,10.70
2019-03-27T02:44:43.191Z,11.30
2019-03-27T02:45:43.190Z,10.30
2019-03-27T02:46:43.166Z,10.90
2019-03-27T02:47:43.156Z,10.80
2019-03-27T02:48:43.154Z,10.70
2019-03-27T02:49:43.186Z,11.10
2019-03-27T02:50:43.129Z,10.70
2019-03-27T02:51:43.124Z,11.00
2019-03-27T02:52:43.109Z,10.50
2019-03-27T02:53:43.106Z,9.40
2019-03-27T02:54:43.114Z,9.60
2019-03-27T02:55:43.125Z,10.50
2019-03-27T02:56:43.063Z,10.00
2019-03-27T02:57:43.056Z,10.50
2019-03-27T02:58:43.055Z,10.30
2019-03-27T02:59:43.046Z,10.70
2019-03-27T03:00:43.043Z,10.20
2019-03-27T03:01:43.043Z,9.90
2019-03-27T03:02:43.018Z,10.20
2019-03-27T03:03:42.992Z,10.00
2019-03-27T03:04:42.973Z,10.40
2019-03-27T03:05:42.973Z,10.80
2019-03-27T03:06:42.970Z,10.20
2019-03-27T03:07:42.995Z,11.00
2019-03-27T03:08:42.933Z,10.40
2019-03-27T03:09:42.930Z,10.40
2019-03-27T03:10:45.445Z,10.60
2019-03-27T03:11:42.914Z,11.60
2019-03-27T03:12:42.926Z,11.00
2019-03-27T03:13:42.894Z,11.30
2019-03-27T03:14:42.871Z,10.80
2019-03-27T03:15:42.858Z,10.30
2019-03-27T03:16:43.482Z,10.80
2019-03-27T03:17:42.847Z,11.60
2019-03-27T03:18:42.858Z,10.70
2019-03-27T03:19:42.832Z,10.80
2019-03-27T03:20:42.813Z,10.60
2019-03-27T03:21:42.811Z,11.30
2019-03-27T03:22:42.785Z,11.20
2019-03-27T03:23:42.788Z,11.60
2019-03-27T03:24:42.804Z,11.70
2019-03-27T03:25:42.797Z,10.90
2019-03-27T03:26:42.743Z,11.60
2019-03-27T03:27:42.735Z,11.50
2019-03-27T03:28:42.721Z,11.60
2019-03-27T03:29:42.737Z,11.10
2019-03-27T03:30:42.748Z,11.50
2019-03-27T03:31:42.716Z,11.60
2019-03-27T03:32:42.678Z,12.40
2019-03-27T03:33:42.705Z,11.80
2019-03-27T03:34:42.689Z,11.80
2019-03-27T03:35:42.653Z,11.90
2019-03-27T03:36:42.645Z,12.30
2019-03-27T03:37:42.688Z,12.60
2019-03-27T03:38:42.617Z,12.30
2019-03-27T03:39:42.609Z,12.10
2019-03-27T03:40:42.627Z,12.30
2019-03-27T03:41:42.601Z,11.70
2019-03-27T03:42:42.593Z,12.90
2019-03-27T03:43:42.558Z,12.50
2019-03-27T03:44:42.556Z,12.60
2019-03-27T03:45:42.543Z,12.50
2019-03-27T03:46:58.444Z,13.10
2019-03-27T03:47:43.517Z,12.70
2019-03-27T03:48:42.524Z,13.00
2019-03-27T03:49:42.514Z,12.30
2019-03-27T03:50:42.487Z,12.90
2019-03-27T03:51:42.475Z,12.60
2019-03-27T03:52:45.879Z,12.80
2019-03-27T03:53:42.472Z,12.60
2019-03-27T03:54:42.473Z,13.30
2019-03-27T03:55:42.437Z,13.20
2019-03-27T03:56:42.440Z,13.90
2019-03-27T03:57:42.426Z,14.00
2019-03-27T03:58:42.408Z,14.40
2019-03-27T03:59:42.400Z,13.60
2019-03-27T04:00:42.389Z,13.30
2019-03-27T04:01:42.381Z,13.60
2019-03-27T04:02:42.382Z,14.50
2019-03-27T04:03:42.365Z,13.00
2019-03-27T04:04:42.348Z,13.40
2019-03-27T04:05:42.389Z,14.10
2019-03-27T04:06:42.321Z,14.90
2019-03-27T04:07:42.340Z,14.20
2019-03-27T04:08:42.291Z,14.40
2019-03-27T04:09:42.283Z,15.30
2019-03-27T04:10:42.287Z,14.90
2019-03-27T04:11:42.264Z,15.50
2019-03-27T04:12:42.257Z,14.30
2019-03-27T04:13:42.278Z,14.30
2019-03-27T04:14:42.252Z,16.40
2019-03-27T04:15:42.227Z,16.50
2019-03-27T04:16:42.229Z,17.20
2019-03-27T04:17:42.206Z,17.30
2019-03-27T04:18:42.191Z,16.00
2019-03-27T04:19:42.207Z,16.20
2019-03-27T04:20:42.168Z,15.70
2019-03-27T04:21:42.177Z,16.50
2019-03-27T04:22:42.143Z,16.80
2019-03-27T04:23:42.166Z,17.40
2019-03-27T04:24:42.150Z,16.50
2019-03-27T04:26:07.173Z,17.60
2019-03-27T04:26:43.106Z,16.90
2019-03-27T04:27:42.101Z,17.90
2019-03-27T04:28:42.088Z,17.40
2019-03-27T04:29:42.078Z,17.50
2019-03-27T04:30:42.185Z,17.60
2019-03-27T04:31:42.067Z,17.70
2019-03-27T04:32:42.054Z,19.40
2019-03-27T04:33:42.034Z,18.90
2019-03-27T04:34:42.031Z,18.50
2019-03-27T04:35:42.006Z,19.10
2019-03-27T04:36:42.071Z,18.60
2019-03-27T04:37:41.984Z,18.80
2019-03-27T04:38:41.988Z,18.80
2019-03-27T04:39:41.974Z,19.30
2019-03-27T04:40:41.964Z,20.10
2019-03-27T04:41:41.968Z,19.00
2019-03-27T04:42:41.953Z,20.30
2019-03-27T04:43:41.925Z,20.20
2019-03-27T04:44:41.911Z,19.50
2019-03-27T04:45:41.901Z,19.70
2019-03-27T04:46:41.898Z,19.50
2019-03-27T04:47:41.907Z,20.40
2019-03-27T04:48:41.879Z,20.80
2019-03-27T04:49:41.907Z,19.80
2019-03-27T04:50:41.859Z,19.50
2019-03-27T04:51:41.867Z,19.80
2019-03-27T04:52:41.834Z,20.80
2019-03-27T04:53:41.849Z,20.30
2019-03-27T04:54:41.803Z,20.20
2019-03-27T04:55:41.854Z,19.40
2019-03-27T04:56:41.796Z,20.50
2019-03-27T04:57:41.782Z,20.60
2019-03-27T04:58:41.776Z,18.90
2019-03-27T04:59:41.785Z,19.60
2019-03-27T05:00:41.741Z,21.00
2019-03-27T05:01:41.738Z,20.00
2019-03-27T05:02:41.743Z,20.40
2019-03-27T05:03:41.753Z,21.30
2019-03-27T05:04:41.728Z,20.60
2019-03-27T05:05:41.693Z,19.80
2019-03-27T05:06:41.701Z,20.20
2019-03-27T05:07:41.674Z,20.40
2019-03-27T05:08:41.667Z,20.40
2019-03-27T05:09:41.647Z,18.90
2019-03-27T05:10:41.672Z,18.60
2019-03-27T05:11:41.629Z,19.70
2019-03-27T05:12:41.638Z,18.80
2019-03-27T05:13:41.626Z,19.30
2019-03-27T05:14:41.603Z,19.10
2019-03-27T05:15:41.587Z,19.00
2019-03-27T05:16:41.614Z,18.70
2019-03-27T05:17:46.323Z,20.50
2019-03-27T05:18:42.556Z,19.00
2019-03-27T05:19:41.579Z,19.40
2019-03-27T05:20:41.531Z,20.00
2019-03-27T05:21:41.544Z,20.20
2019-03-27T05:22:41.508Z,20.50
2019-03-27T05:23:41.498Z,20.50
2019-03-27T05:24:41.491Z,19.90
2019-03-27T05:25:41.476Z,20.20
2019-03-27T05:26:41.466Z,20.80
2019-03-27T05:27:41.524Z,20.80
2019-03-27T05:28:41.456Z,20.90
2019-03-27T05:29:41.437Z,18.70
2019-03-27T05:30:41.423Z,20.00
2019-03-27T05:31:41.418Z,20.90
2019-03-27T05:32:41.406Z,20.70
2019-03-27T05:33:41.427Z,19.30
2019-03-27T05:34:41.382Z,21.70
2019-03-27T05:35:41.380Z,19.90
2019-03-27T05:36:41.367Z,20.70
2019-03-27T05:37:41.354Z,21.00
2019-03-27T05:38:41.342Z,21.20
2019-03-27T05:39:41.345Z,21.30
2019-03-27T05:40:41.327Z,21.90
2019-03-27T05:41:41.322Z,21.80
2019-03-27T05:42:41.302Z,20.10
2019-03-27T05:43:41.285Z,21.30
2019-03-27T05:44:41.311Z,21.10
2019-03-27T05:45:41.267Z,21.20
2019-03-27T05:46:41.258Z,22.10
2019-03-27T05:47:41.261Z,19.90
2019-03-27T05:48:41.240Z,21.30
2019-03-27T05:49:41.223Z,20.20
2019-03-27T05:50:41.289Z,20.70
2019-03-27T05:51:41.211Z,20.20
2019-03-27T05:52:41.204Z,21.40
2019-03-27T05:53:41.178Z,21.10
2019-03-27T05:54:41.170Z,20.90
2019-03-27T05:55:41.180Z,21.40
2019-03-27T05:56:41.225Z,23.40
2019-03-27T05:57:41.141Z,21.20
2019-03-27T05:58:41.133Z,21.50
2019-03-27T05:59:41.114Z,21.30
2019-03-27T06:00:41.104Z,21.90
2019-03-27T06:01:41.121Z,21.40
2019-03-27T06:02:42.004Z,20.80
2019-03-27T06:03:41.090Z,22.00
2019-03-27T06:04:41.070Z,22.10
2019-03-27T06:05:41.059Z,21.00
2019-03-27T06:06:41.104Z,21.60
2019-03-27T06:07:41.037Z,21.90
2019-03-27T06:08:41.027Z,22.60
2019-03-27T06:09:41.088Z,22.40
2019-03-27T06:10:41.044Z,21.10
2019-03-27T06:11:40.985Z,21.00
2019-03-27T06:12:41.000Z,21.70
2019-03-27T06:13:40.965Z,19.70
2019-03-27T06:14:40.966Z,21.40
2019-03-27T06:15:40.952Z,21.00
2019-03-27T06:16:40.941Z,21.30
2019-03-27T06:17:40.925Z,21.70
2019-03-27T06:18:40.948Z,21.90
2019-03-27T06:19:40.913Z,21.00
2019-03-27T06:20:40.907Z,20.60
2019-03-27T06:21:40.899Z,21.20
2019-03-27T06:22:40.868Z,20.90
2019-03-27T06:23:40.875Z,21.20
2019-03-27T06:24:40.875Z,20.70
2019-03-27T06:25:41.073Z,21.00
2019-03-27T06:26:40.835Z,21.60
2019-03-27T06:27:40.827Z,20.30
2019-03-27T06:28:40.850Z,20.80
2019-03-27T06:29:40.797Z,20.60
2019-03-27T06:30:40.891Z,19.80
2019-03-27T06:31:40.863Z,20.20
2019-03-27T06:32:40.762Z,19.60
2019-03-27T06:33:40.756Z,19.20
2019-03-27T06:34:40.772Z,21.20
2019-03-27T06:35:40.925Z,21.10
2019-03-27T06:36:40.720Z,20.10
2019-03-27T06:37:40.720Z,20.10
2019-03-27T06:38:40.776Z,19.60
2019-03-27T06:39:40.696Z,20.20
2019-03-27T06:40:40.734Z,19.10
2019-03-27T06:41:40.669Z,20.50
2019-03-27T06:42:40.662Z,19.20
2019-03-27T06:43:40.666Z,19.70
2019-03-27T06:44:40.647Z,19.70
2019-03-27T06:45:40.636Z,18.80
2019-03-27T06:46:40.656Z,19.70
2019-03-27T06:47:40.602Z,18.60
2019-03-27T06:48:40.598Z,18.40
2019-03-27T06:49:40.591Z,18.70
2019-03-27T06:50:40.571Z,19.10
2019-03-27T06:51:40.732Z,18.70
2019-03-27T06:52:40.549Z,19.40
2019-03-27T06:53:40.562Z,18.80
2019-03-27T06:54:40.533Z,18.40
2019-03-27T06:55:40.535Z,18.70
2019-03-27T06:56:40.519Z,17.70
2019-03-27T06:57:41.402Z,18.50
2019-03-27T06:58:53.578Z,19.60
2019-03-27T06:59:41.479Z,18.40
2019-03-27T07:00:40.490Z,18.70
2019-03-27T07:01:40.462Z,17.80
2019-03-27T07:02:40.441Z,18.00
2019-03-27T07:03:40.647Z,19.00
2019-03-27T07:04:40.420Z,18.00
2019-03-27T07:05:40.452Z,18.50
2019-03-27T07:06:40.404Z,18.30
2019-03-27T07:07:40.404Z,17.70
2019-03-27T07:08:40.470Z,17.00
2019-03-27T07:09:42.518Z,17.50
2019-03-27T07:10:40.356Z,18.10
2019-03-27T07:11:40.348Z,17.90
2019-03-27T07:12:40.363Z,17.50
2019-03-27T07:13:40.327Z,16.40
2019-03-27T07:14:40.344Z,17.90
2019-03-27T07:15:40.304Z,18.30
2019-03-27T07:16:40.299Z,15.90
2019-03-27T07:17:40.280Z,17.40
2019-03-27T07:18:40.729Z,16.80
2019-03-27T07:19:40.261Z,15.70
2019-03-27T07:20:41.131Z,16.10
2019-03-27T07:21:40.361Z,15.40
2019-03-27T07:22:40.233Z,15.80
2019-03-27T07:23:40.223Z,16.40
2019-03-27T07:24:40.320Z,17.10
2019-03-27T07:25:40.203Z,16.20
2019-03-27T07:26:40.222Z,17.20
2019-03-27T07:27:40.180Z,15.90
2019-03-27T07:28:40.203Z,15.10
2019-03-27T07:29:40.182Z,14.90
2019-03-27T07:30:40.152Z,15.20
2019-03-27T07:31:40.171Z,13.50
2019-03-27T07:32:40.119Z,14.50
2019-03-27T07:33:40.113Z,14.40
2019-03-27T07:34:40.129Z,13.60
2019-03-27T07:35:40.850Z,13.80
2019-03-27T07:36:40.080Z,15.20
2019-03-27T07:37:40.101Z,13.50
2019-03-27T07:38:40.095Z,13.60
2019-03-27T07:39:40.057Z,14.00
2019-03-27T07:40:40.045Z,13.20
2019-03-27T07:41:40.024Z,13.10
2019-03-27T07:42:40.012Z,13.20
2019-03-27T07:43:40.022Z,12.50
2019-03-27T07:44:39.997Z,12.30
2019-03-27T07:45:39.981Z,13.00
2019-03-27T07:46:39.973Z,11.40
2019-03-27T07:47:39.955Z,11.00
2019-03-27T07:48:52.891Z,11.30
2019-03-27T07:49:40.933Z,12.50
2019-03-27T07:50:39.930Z,11.60
2019-03-27T07:51:39.927Z,11.70
2019-03-27T07:52:39.913Z,10.90
2019-03-27T07:53:39.929Z,12.80
2019-03-27T07:54:39.891Z,12.00
2019-03-27T07:55:39.939Z,12.10
2019-03-27T07:56:39.874Z,12.90
2019-03-27T07:57:39.857Z,12.30
2019-03-27T07:58:39.943Z,11.60
2019-03-27T07:59:39.906Z,11.30
2019-03-27T08:00:39.834Z,12.30
2019-03-27T08:01:39.809Z,12.10
2019-03-27T08:02:39.837Z,11.40
2019-03-27T08:03:39.796Z,11.30
2019-03-27T08:04:39.785Z,10.90
2019-03-27T08:05:39.791Z,11.00
2019-03-27T08:06:39.751Z,10.60
2019-03-27T08:07:39.754Z,11.10
2019-03-27T08:08:39.732Z,10.40
2019-03-27T08:09:39.737Z,9.60
2019-03-27T08:10:39.728Z,9.70
2019-03-27T08:11:39.850Z,9.50
2019-03-27T08:12:39.712Z,10.30
2019-03-27T08:13:39.680Z,10.00
2019-03-27T08:14:39.685Z,10.20
2019-03-27T08:15:40.989Z,9.10
2019-03-27T08:16:39.680Z,9.70
2019-03-27T08:17:39.635Z,10.00
2019-03-27T08:18:39.644Z,9.00
2019-03-27T08:19:39.615Z,9.00
2019-03-27T08:20:39.602Z,8.30
2019-03-27T08:21:39.654Z,9.30
2019-03-27T08:22:39.588Z,9.00
2019-03-27T08:23:39.572Z,8.60
2019-03-27T08:24:39.596Z,8.10
2019-03-27T08:25:39.557Z,9.20
2019-03-27T08:26:39.537Z,8.50
2019-03-27T08:27:39.547Z,8.00
2019-03-27T08:28:39.517Z,8.70
2019-03-27T08:29:39.510Z,8.70
2019-03-27T08:30:39.493Z,8.80
2019-03-27T08:31:39.484Z,8.00
2019-03-27T08:32:39.478Z,7.30
2019-03-27T08:33:39.502Z,7.50
2019-03-27T08:34:39.454Z,7.80
2019-03-27T08:35:39.436Z,6.70
2019-03-27T08:36:39.429Z,8.00
2019-03-27T08:37:39.414Z,8.40
2019-03-27T08:38:39.468Z,7.00
2019-03-27T08:39:39.404Z,8.00
2019-03-27T08:40:39.382Z,7.20
2019-03-27T08:41:39.380Z,8.20
2019-03-27T08:42:39.384Z,7.60
2019-03-27T08:43:39.375Z,7.60
2019-03-27T08:44:39.343Z,7.40
2019-03-27T08:45:39.324Z,6.90
2019-03-27T08:46:39.325Z,7.00
2019-03-27T08:47:39.316Z,7.00
2019-03-27T08:48:39.508Z,7.00
2019-03-27T08:49:39.302Z,7.10
2019-03-27T08:50:39.265Z,6.60
2019-03-27T08:51:39.265Z,6.00
2019-03-27T08:52:39.265Z,5.90
2019-03-27T08:53:39.263Z,6.00
2019-03-27T08:54:39.290Z,5.70
2019-03-27T08:55:39.238Z,6.10
2019-03-27T08:56:39.201Z,6.20
2019-03-27T08:57:39.191Z,6.60
2019-03-27T08:58:39.198Z,6.80
2019-03-27T08:59:39.170Z,6.00
2019-03-27T09:00:39.214Z,6.30
2019-03-27T09:01:39.175Z,6.50
2019-03-27T09:02:39.140Z,6.20
2019-03-27T09:03:39.129Z,6.40
2019-03-27T09:04:39.140Z,6.50
2019-03-27T09:05:39.133Z,7.00
2019-03-27T09:06:39.099Z,6.20
2019-03-27T09:07:39.089Z,6.00
2019-03-27T09:08:39.066Z,6.30
2019-03-27T09:09:39.098Z,6.00
2019-03-27T09:10:39.052Z,5.90
2019-03-27T09:11:39.064Z,6.80
2019-03-27T09:12:39.033Z,6.20
2019-03-27T09:13:39.018Z,6.50
2019-03-27T09:14:39.006Z,6.20
2019-03-27T09:15:39.006Z,5.90
2019-03-27T09:16:38.992Z,6.00
2019-03-27T09:17:39.004Z,5.90
2019-03-27T09:18:38.966Z,5.80
2019-03-27T09:19:38.958Z,6.30
2019-03-27T09:20:38.945Z,6.10
2019-03-27T09:21:38.942Z,5.30
2019-03-27T09:22:38.916Z,5.50
2019-03-27T09:23:38.917Z,5.20
2019-03-27T09:24:38.896Z,5.60
2019-03-27T09:25:38.974Z,5.20
2019-03-27T09:26:38.896Z,5.30
2019-03-27T09:27:38.862Z,5.00
2019-03-27T09:28:38.886Z,5.60
2019-03-27T09:29:38.938Z,4.80
2019-03-27T09:30:38.831Z,5.00
2019-03-27T09:31:44.736Z,4.40
2019-03-27T09:32:39.841Z,4.40
2019-03-27T09:33:38.810Z,4.80
2019-03-27T09:34:38.822Z,4.10
2019-03-27T09:35:38.779Z,4.30
2019-03-27T09:36:38.770Z,4.10
2019-03-27T09:37:38.810Z,4.10
2019-03-27T09:38:38.766Z,4.60
2019-03-27T09:39:38.733Z,4.70
2019-03-27T09:40:38.730Z,4.30
2019-03-27T09:41:38.715Z,4.30
2019-03-27T09:42:38.713Z,5.00
2019-03-27T09:43:38.690Z,3.70
2019-03-27T09:44:38.685Z,4.20
2019-03-27T09:45:38.663Z,3.50
2019-03-27T09:46:38.666Z,4.30
2019-03-27T09:47:38.666Z,4.10
2019-03-27T09:48:38.652Z,4.10
2019-03-27T09:49:48.837Z,4.30
2019-03-27T09:50:39.619Z,4.60
2019-03-27T09:51:38.589Z,3.50
2019-03-27T09:52:38.615Z,4.40
2019-03-27T09:53:38.571Z,3.90
2019-03-27T09:54:38.582Z,4.00
2019-03-27T09:55:38.580Z,3.90
2019-03-27T09:56:38.535Z,4.20
2019-03-27T09:57:38.533Z,5.20
2019-03-27T09:58:38.558Z,4.10
2019-03-27T09:59:38.502Z,4.20
2019-03-27T10:00:38.497Z,4.70
2019-03-27T10:01:38.493Z,4.70
2019-03-27T10:02:38.480Z,5.50
2019-03-27T10:03:38.462Z,5.80
2019-03-27T10:04:38.478Z,6.00
2019-03-27T10:05:38.442Z,4.90
2019-03-27T10:06:38.432Z,5.40
2019-03-27T10:07:38.425Z,5.20
2019-03-27T10:08:38.405Z,4.60
2019-03-27T10:09:38.404Z,5.30
2019-03-27T10:10:38.409Z,5.90
2019-03-27T10:11:38.372Z,4.90
2019-03-27T10:12:38.410Z,5.60
2019-03-27T10:13:38.356Z,5.10
2019-03-27T10:14:38.334Z,4.20
2019-03-27T10:15:38.349Z,4.50
2019-03-27T10:16:38.330Z,4.60
2019-03-27T10:17:38.313Z,4.80
2019-03-27T10:18:38.303Z,4.60
2019-03-27T10:19:38.290Z,4.20
2019-03-27T10:20:38.350Z,4.20
2019-03-27T10:21:38.266Z,3.90
2019-03-27T10:22:38.261Z,4.30
2019-03-27T10:23:38.246Z,4.10
2019-03-27T10:24:38.239Z,4.30
2019-03-27T10:25:38.248Z,4.20
2019-03-27T10:26:38.257Z,3.90
2019-03-27T10:27:38.224Z,4.30
2019-03-27T10:28:38.182Z,3.80
2019-03-27T10:29:38.177Z,3.90
2019-03-27T10:30:38.177Z,3.90
2019-03-27T10:31:38.154Z,4.60
2019-03-27T10:32:38.166Z,4.30
2019-03-27T10:33:38.126Z,3.80
2019-03-27T10:34:38.129Z,3.30
2019-03-27T10:35:38.115Z,3.80
2019-03-27T10:36:38.108Z,3.40
2019-03-27T10:37:38.111Z,3.60
2019-03-27T10:38:41.459Z,3.60
2019-03-27T10:39:38.083Z,3.30
2019-03-27T10:40:38.056Z,3.30
2019-03-27T10:41:38.039Z,3.80
2019-03-27T10:42:38.058Z,3.90
2019-03-27T10:43:38.019Z,4.00
2019-03-27T10:44:38.068Z,3.50
2019-03-27T10:45:38.016Z,3.70
2019-03-27T10:46:37.997Z,3.50
2019-03-27T10:47:38.013Z,3.70
2019-03-27T10:48:51.486Z,3.40
2019-03-27T10:49:38.961Z,3.30
2019-03-27T10:50:37.959Z,3.10
2019-03-27T10:51:37.940Z,3.70
2019-03-27T10:52:37.929Z,3.20
2019-03-27T10:53:37.928Z,3.30
2019-03-27T10:54:37.931Z,3.60
2019-03-27T10:55:37.901Z,3.00
2019-03-27T10:56:38.042Z,3.80
2019-03-27T10:57:37.904Z,4.30
2019-03-27T10:58:37.866Z,4.20
2019-03-27T10:59:37.859Z,3.80
2019-03-27T11:00:37.859Z,3.40
2019-03-27T11:01:37.838Z,3.60
2019-03-27T11:02:37.848Z,3.80
2019-03-27T11:03:37.808Z,4.10
2019-03-27T11:04:37.801Z,4.70
2019-03-27T11:05:37.810Z,4.70
2019-03-27T11:06:37.777Z,4.40
2019-03-27T11:07:37.769Z,4.10
2019-03-27T11:08:37.755Z,4.90
2019-03-27T11:09:37.757Z,3.80
2019-03-27T11:10:37.742Z,4.50
2019-03-27T11:11:37.760Z,4.60
2019-03-27T11:12:37.712Z,5.00
2019-03-27T11:13:37.697Z,4.90
2019-03-27T11:14:38.520Z,4.40
2019-03-27T11:15:37.685Z,4.40
2019-03-27T11:16:37.681Z,4.20
2019-03-27T11:17:37.739Z,4.00
2019-03-27T11:18:37.658Z,4.70
2019-03-27T11:19:37.634Z,4.70
2019-03-27T11:20:38.330Z,4.70
2019-03-27T11:21:37.617Z,5.70
2019-03-27T11:22:37.863Z,6.80
2019-03-27T11:23:37.593Z,5.40
2019-03-27T11:24:37.580Z,5.50
2019-03-27T11:25:37.566Z,6.00
2019-03-27T11:26:37.565Z,6.10
2019-03-27T11:27:37.546Z,6.50
2019-03-27T11:28:37.573Z,6.40
2019-03-27T11:29:37.518Z,8.30
2019-03-27T11:30:37.511Z,7.60
2019-03-27T11:31:37.507Z,6.70
2019-03-27T11:32:37.510Z,6.80
2019-03-27T11:33:37.519Z,6.10
2019-03-27T11:34:37.520Z,6.70
2019-03-27T11:35:37.455Z,6.50
2019-03-27T11:36:37.514Z,6.10
2019-03-27T11:37:37.439Z,6.70
2019-03-27T11:38:37.855Z,7.00
2019-03-27T11:39:37.419Z,6.40
2019-03-27T11:40:37.423Z,7.70
2019-03-27T11:41:37.391Z,7.00
2019-03-27T11:42:37.388Z,7.80
2019-03-27T11:43:37.385Z,7.80
2019-03-27T11:44:37.389Z,7.40
2019-03-27T11:45:37.356Z,7.50
2019-03-27T11:46:37.340Z,6.70
2019-03-27T11:47:37.328Z,6.50
2019-03-27T11:48:37.338Z,6.70
2019-03-27T11:49:37.307Z,7.30
2019-03-27T11:50:44.748Z,7.90
2019-03-27T11:51:38.313Z,7.10
2019-03-27T11:52:37.303Z,6.80
2019-03-27T11:53:37.255Z,8.00
2019-03-27T11:54:37.271Z,7.60
2019-03-27T11:55:37.242Z,7.50
2019-03-27T11:56:37.227Z,7.20
2019-03-27T11:57:37.248Z,7.60
2019-03-27T11:58:37.202Z,7.30
2019-03-27T11:59:37.209Z,8.00
2019-03-27T12:00:37.180Z,6.90
2019-03-27T12:01:40.800Z,7.30
2019-03-27T12:02:38.174Z,7.40
2019-03-27T12:03:37.154Z,7.70
2019-03-27T12:04:37.201Z,7.80
2019-03-27T12:05:37.123Z,8.20
2019-03-27T12:06:37.119Z,8.00
2019-03-27T12:07:37.141Z,8.00
2019-03-27T12:08:37.089Z,7.40
2019-03-27T12:09:37.142Z,8.60
2019-03-27T12:10:37.119Z,8.20
2019-03-27T12:11:37.059Z,8.80
2019-03-27T12:12:37.060Z,7.40
2019-03-27T12:13:37.043Z,7.60
2019-03-27T12:14:37.025Z,7.90
2019-03-27T12:15:37.010Z,7.90
2019-03-27T12:16:37.039Z,8.20
2019-03-27T12:17:37.070Z,8.20
2019-03-27T12:18:36.995Z,7.70
2019-03-27T12:19:37.994Z,8.80
2019-03-27T12:20:36.966Z,8.40
2019-03-27T12:21:36.979Z,8.20
2019-03-27T12:22:36.944Z,8.80
2019-03-27T12:23:36.930Z,8.70
2019-03-27T12:24:36.939Z,9.20
2019-03-27T12:25:36.910Z,9.30
2019-03-27T12:26:36.905Z,8.70
2019-03-27T12:27:36.908Z,8.90
2019-03-27T12:28:36.873Z,8.60
2019-03-27T12:29:36.874Z,9.20
2019-03-27T12:30:36.856Z,8.60
2019-03-27T12:31:36.833Z,8.30
2019-03-27T12:32:36.859Z,8.60
2019-03-27T12:33:36.852Z,9.30
2019-03-27T12:34:37.777Z,9.40
2019-03-27T12:35:36.800Z,8.70
2019-03-27T12:36:36.889Z,8.90
2019-03-27T12:37:36.806Z,8.80
2019-03-27T12:38:36.763Z,8.80
2019-03-27T12:39:36.747Z,9.30
2019-03-27T12:40:36.741Z,9.20
2019-03-27T12:41:36.802Z,9.50
2019-03-27T12:42:36.734Z,9.40
2019-03-27T12:43:36.719Z,9.30
2019-03-27T12:44:36.732Z,9.90
2019-03-27T12:45:36.687Z,10.20
2019-03-27T12:46:36.681Z,9.40
2019-03-27T12:47:36.692Z,10.50
2019-03-27T12:48:36.648Z,10.80
2019-03-27T12:49:36.645Z,11.20
2019-03-27T12:50:36.639Z,11.40
2019-03-27T12:51:36.737Z,10.70
2019-03-27T12:52:36.627Z,10.60
2019-03-27T12:53:36.606Z,10.50
2019-03-27T12:54:36.618Z,12.20
2019-03-27T12:55:36.599Z,11.70
2019-03-27T12:56:36.569Z,10.70
2019-03-27T12:57:36.582Z,10.90
2019-03-27T12:58:36.565Z,11.00
2019-03-27T12:59:36.533Z,10.80
2019-03-27T13:00:36.523Z,11.10
2019-03-27T13:01:36.529Z,11.10
2019-03-27T13:02:36.498Z,10.90
2019-03-27T13:03:36.507Z,11.50
2019-03-27T13:04:36.478Z,11.90
2019-03-27T13:05:36.461Z,11.60